Terminal Aerodrome Forecast
Issued by NWS

Home | Current Version | Previous Version | Text Only | Print | Product List | Glossary On
Versions: 1 2 3 4 5 6 7 8 9 10 11 12 13 14
000
FTUS42 TJSJ 271700
TAFJSJ
TAF
TJSJ 271740Z 2718/2818 09015G20KT P6SM FEW030 SCT050
     FM272230 VRB05KT P6SM FEW025 FEW040
     FM281330 09013KT P6SM FEW030 SCT050=

USA.gov is the U.S. government's official web portal to all federal, state and local government web resources and services.